Terminal Aerodrome Forecast
Issued by NWS Cleveland, OH

Home | Current Version | Previous Version | Text Only | Print | Product List | Glossary On
Versions: 1 2 3 4 5 6 7 8 9 10 11 12 13 14 15 16 17 18 19 20 21 22 23 24 25
915
FTUS41 KCLE 300540
TAFMFD
TAF
KMFD 300540Z 3006/3106 21006KT P6SM -SHRA VCTS SCT060CB BKN080
     FM300700 21006KT P6SM VCSH BKN040 OVC080
     FM301000 22004KT P6SM SCT040
     FM301600 25012G20KT P6SM BKN060=

USA.gov is the U.S. government's official web portal to all federal, state and local government web resources and services.